Terminal Aerodrome Forecast
Issued by NWS Shreveport, LA

Home | Current Version | Previous Version | Text Only | Print | Product List | Glossary On
Versions: 1 2 3 4 5 6 7 8 9 10 11 12 13 14 15 16
905
FTUS44 KSHV 270457 AAB
TAFSHV
TAF AMD
KSHV 270457Z 2705/2724 17009KT P6SM VCTS BKN025CB OVC050
     FM270600 15007KT 3SM -SHRA VCTS BKN015 OVC025CB
     FM270900 14006KT 3SM TSRA BR BKN010 OVC020CB
     FM271800 16006KT P6SM VCTS BKN030 OVC040CB=

USA.gov is the U.S. government's official web portal to all federal, state and local government web resources and services.